sensor_id;sensor_type;location;lat;lon;timestamp;P1;durP1;ratioP1;P2;durP2;ratioP2
3280;SDS011;1652;51.318;6.202;2023-04-29T00:01:04;71.43;;;36.93;;
3280;SDS011;1652;51.318;6.202;2023-04-29T00:03:31;78.17;;;36.07;;
3280;SDS011;1652;51.318;6.202;2023-04-29T00:05:58;69.63;;;36.60;;
3280;SDS011;1652;51.318;6.202;2023-04-29T00:08:26;77.33;;;38.87;;
3280;SDS011;1652;51.318;6.202;2023-04-29T00:10:53;83.60;;;40.13;;
3280;SDS011;1652;51.318;6.202;2023-04-29T00:13:20;85.00;;;40.70;;
3280;SDS011;1652;51.318;6.202;2023-04-29T00:15:47;78.23;;;41.97;;
3280;SDS011;1652;51.318;6.202;2023-04-29T00:18:15;89.93;;;42.50;;
3280;SDS011;1652;51.318;6.202;2023-04-29T00:20:42;80.63;;;41.20;;
3280;SDS011;1652;51.318;6.202;2023-04-29T00:23:09;89.87;;;43.20;;
3280;SDS011;1652;51.318;6.202;2023-04-29T00:25:36;91.83;;;41.90;;
3280;SDS011;1652;51.318;6.202;2023-04-29T00:28:04;91.33;;;42.63;;
3280;SDS011;1652;51.318;6.202;2023-04-29T00:30:31;89.53;;;43.33;;
3280;SDS011;1652;51.318;6.202;2023-04-29T00:32:59;98.13;;;43.83;;
3280;SDS011;1652;51.318;6.202;2023-04-29T00:35:27;97.07;;;45.43;;
3280;SDS011;1652;51.318;6.202;2023-04-29T00:37:53;102.33;;;44.43;;
3280;SDS011;1652;51.318;6.202;2023-04-29T00:40:20;99.77;;;46.47;;
3280;SDS011;1652;51.318;6.202;2023-04-29T00:42:47;106.73;;;46.13;;
3280;SDS011;1652;51.318;6.202;2023-04-29T00:45:14;97.90;;;47.90;;
3280;SDS011;1652;51.318;6.202;2023-04-29T00:47:41;100.27;;;46.63;;
3280;SDS011;1652;51.318;6.202;2023-04-29T00:50:08;110.20;;;47.13;;
3280;SDS011;1652;51.318;6.202;2023-04-29T00:52:36;111.80;;;48.60;;
3280;SDS011;1652;51.318;6.202;2023-04-29T00:55:07;101.10;;;46.37;;
3280;SDS011;1652;51.318;6.202;2023-04-29T00:57:34;109.40;;;45.73;;
3280;SDS011;1652;51.318;6.202;2023-04-29T01:00:01;105.67;;;45.67;;
3280;SDS011;1652;51.318;6.202;2023-04-29T01:02:29;109.63;;;45.40;;
3280;SDS011;1652;51.318;6.202;2023-04-29T01:04:56;103.50;;;40.00;;
3280;SDS011;1652;51.318;6.202;2023-04-29T01:07:44;100.33;;;42.27;;
3280;SDS011;1652;51.318;6.202;2023-04-29T01:13:28;101.67;;;41.03;;
3280;SDS011;1652;51.318;6.202;2023-04-29T01:16:02;85.63;;;37.20;;
3280;SDS011;1652;51.318;6.202;2023-04-29T01:18:35;90.97;;;38.47;;
3280;SDS011;1652;51.318;6.202;2023-04-29T01:21:07;87.27;;;37.33;;
3280;SDS011;1652;51.318;6.202;2023-04-29T01:23:34;91.63;;;39.63;;
3280;SDS011;1652;51.318;6.202;2023-04-29T01:26:01;103.60;;;39.50;;
3280;SDS011;1652;51.318;6.202;2023-04-29T01:31:27;85.73;;;36.93;;
3280;SDS011;1652;51.318;6.202;2023-04-29T01:36:39;89.43;;;34.00;;
3280;SDS011;1652;51.318;6.202;2023-04-29T01:39:21;81.63;;;34.60;;
3280;SDS011;1652;51.318;6.202;2023-04-29T01:44:27;78.00;;;32.67;;
3280;SDS011;1652;51.318;6.202;2023-04-29T01:46:57;81.93;;;32.60;;
3280;SDS011;1652;51.318;6.202;2023-04-29T01:49:25;69.00;;;31.80;;
3280;SDS011;1652;51.318;6.202;2023-04-29T01:51:52;81.10;;;33.70;;
3280;SDS011;1652;51.318;6.202;2023-04-29T01:54:20;65.37;;;29.53;;
3280;SDS011;1652;51.318;6.202;2023-04-29T01:56:47;66.70;;;29.20;;
3280;SDS011;1652;51.318;6.202;2023-04-29T01:59:14;70.33;;;32.10;;
3280;SDS011;1652;51.318;6.202;2023-04-29T02:01:41;74.17;;;34.07;;
3280;SDS011;1652;51.318;6.202;2023-04-29T02:04:09;69.73;;;30.70;;
3280;SDS011;1652;51.318;6.202;2023-04-29T02:06:35;62.83;;;28.70;;
3280;SDS011;1652;51.318;6.202;2023-04-29T02:09:02;67.03;;;30.40;;
3280;SDS011;1652;51.318;6.202;2023-04-29T02:11:29;75.70;;;31.60;;
3280;SDS011;1652;51.318;6.202;2023-04-29T02:13:56;79.03;;;32.37;;
3280;SDS011;1652;51.318;6.202;2023-04-29T02:16:23;72.80;;;31.83;;
3280;SDS011;1652;51.318;6.202;2023-04-29T02:18:50;64.40;;;30.27;;
3280;SDS011;1652;51.318;6.202;2023-04-29T02:21:17;58.67;;;28.37;;
3280;SDS011;1652;51.318;6.202;2023-04-29T02:23:44;74.33;;;33.73;;
3280;SDS011;1652;51.318;6.202;2023-04-29T02:26:10;68.33;;;30.77;;
3280;SDS011;1652;51.318;6.202;2023-04-29T02:28:39;64.80;;;30.93;;
3280;SDS011;1652;51.318;6.202;2023-04-29T02:31:06;65.27;;;29.30;;
3280;SDS011;1652;51.318;6.202;2023-04-29T02:33:32;77.03;;;31.53;;
3280;SDS011;1652;51.318;6.202;2023-04-29T02:36:00;73.50;;;32.50;;
3280;SDS011;1652;51.318;6.202;2023-04-29T02:38:26;65.03;;;29.77;;
3280;SDS011;1652;51.318;6.202;2023-04-29T02:40:53;74.47;;;32.87;;
3280;SDS011;1652;51.318;6.202;2023-04-29T02:43:20;76.20;;;32.93;;
3280;SDS011;1652;51.318;6.202;2023-04-29T02:45:47;79.73;;;33.37;;
3280;SDS011;1652;51.318;6.202;2023-04-29T02:48:14;73.30;;;32.00;;
3280;SDS011;1652;51.318;6.202;2023-04-29T02:50:42;80.07;;;32.20;;
3280;SDS011;1652;51.318;6.202;2023-04-29T02:53:09;71.13;;;32.30;;
3280;SDS011;1652;51.318;6.202;2023-04-29T02:55:35;75.20;;;33.73;;
3280;SDS011;1652;51.318;6.202;2023-04-29T02:58:02;67.60;;;31.90;;
3280;SDS011;1652;51.318;6.202;2023-04-29T03:00:29;73.73;;;33.10;;
3280;SDS011;1652;51.318;6.202;2023-04-29T03:02:56;75.03;;;32.17;;
3280;SDS011;1652;51.318;6.202;2023-04-29T03:05:23;72.07;;;32.43;;
3280;SDS011;1652;51.318;6.202;2023-04-29T03:07:50;74.30;;;32.37;;
3280;SDS011;1652;51.318;6.202;2023-04-29T03:10:17;78.70;;;34.10;;
3280;SDS011;1652;51.318;6.202;2023-04-29T03:12:44;72.57;;;34.50;;
3280;SDS011;1652;51.318;6.202;2023-04-29T03:17:39;81.53;;;33.50;;
3280;SDS011;1652;51.318;6.202;2023-04-29T03:20:06;95.20;;;37.30;;
3280;SDS011;1652;51.318;6.202;2023-04-29T03:22:35;96.20;;;36.47;;
3280;SDS011;1652;51.318;6.202;2023-04-29T03:25:03;88.93;;;36.40;;
3280;SDS011;1652;51.318;6.202;2023-04-29T03:27:30;74.60;;;32.00;;
3280;SDS011;1652;51.318;6.202;2023-04-29T03:29:57;93.50;;;35.73;;
3280;SDS011;1652;51.318;6.202;2023-04-29T03:32:24;101.50;;;36.27;;
3280;SDS011;1652;51.318;6.202;2023-04-29T03:34:51;95.50;;;34.57;;
3280;SDS011;1652;51.318;6.202;2023-04-29T03:37:18;93.37;;;37.43;;
3280;SDS011;1652;51.318;6.202;2023-04-29T03:39:44;98.80;;;37.70;;
3280;SDS011;1652;51.318;6.202;2023-04-29T03:42:11;88.50;;;36.00;;
3280;SDS011;1652;51.318;6.202;2023-04-29T03:44:38;93.03;;;37.60;;
3280;SDS011;1652;51.318;6.202;2023-04-29T03:47:05;90.43;;;36.97;;
3280;SDS011;1652;51.318;6.202;2023-04-29T03:49:32;91.57;;;36.70;;
3280;SDS011;1652;51.318;6.202;2023-04-29T03:51:59;82.87;;;33.43;;
3280;SDS011;1652;51.318;6.202;2023-04-29T03:54:26;83.67;;;33.37;;
3280;SDS011;1652;51.318;6.202;2023-04-29T03:56:53;87.40;;;34.73;;
3280;SDS011;1652;51.318;6.202;2023-04-29T03:59:21;79.50;;;32.57;;
3280;SDS011;1652;51.318;6.202;2023-04-29T04:01:48;70.63;;;32.20;;
3280;SDS011;1652;51.318;6.202;2023-04-29T04:04:15;71.27;;;31.40;;
3280;SDS011;1652;51.318;6.202;2023-04-29T04:06:43;82.77;;;33.30;;
3280;SDS011;1652;51.318;6.202;2023-04-29T04:09:16;71.53;;;30.30;;
3280;SDS011;1652;51.318;6.202;2023-04-29T04:11:44;80.20;;;32.53;;
3280;SDS011;1652;51.318;6.202;2023-04-29T04:14:11;79.97;;;31.23;;
3280;SDS011;1652;51.318;6.202;2023-04-29T04:16:38;69.10;;;30.47;;
3280;SDS011;1652;51.318;6.202;2023-04-29T04:19:05;75.30;;;31.57;;
3280;SDS011;1652;51.318;6.202;2023-04-29T04:21:31;69.27;;;30.47;;
3280;SDS011;1652;51.318;6.202;2023-04-29T04:23:58;74.87;;;30.13;;
3280;SDS011;1652;51.318;6.202;2023-04-29T04:26:25;68.37;;;30.57;;
3280;SDS011;1652;51.318;6.202;2023-04-29T04:28:52;62.67;;;28.30;;
3280;SDS011;1652;51.318;6.202;2023-04-29T04:31:19;69.03;;;28.60;;
3280;SDS011;1652;51.318;6.202;2023-04-29T04:33:46;77.57;;;30.00;;
3280;SDS011;1652;51.318;6.202;2023-04-29T04:36:13;72.23;;;29.87;;
3280;SDS011;1652;51.318;6.202;2023-04-29T04:38:39;68.07;;;29.93;;
3280;SDS011;1652;51.318;6.202;2023-04-29T04:41:06;73.23;;;29.53;;
3280;SDS011;1652;51.318;6.202;2023-04-29T04:43:33;63.47;;;28.40;;
3280;SDS011;1652;51.318;6.202;2023-04-29T04:46:08;63.00;;;27.87;;
3280;SDS011;1652;51.318;6.202;2023-04-29T04:48:36;73.33;;;27.07;;
3280;SDS011;1652;51.318;6.202;2023-04-29T04:51:10;61.37;;;27.50;;
3280;SDS011;1652;51.318;6.202;2023-04-29T04:53:38;58.93;;;25.70;;
3280;SDS011;1652;51.318;6.202;2023-04-29T04:56:06;63.07;;;25.63;;
3280;SDS011;1652;51.318;6.202;2023-04-29T04:58:33;60.27;;;24.80;;
3280;SDS011;1652;51.318;6.202;2023-04-29T05:01:00;60.00;;;26.10;;
3280;SDS011;1652;51.318;6.202;2023-04-29T05:03:27;57.67;;;24.13;;
3280;SDS011;1652;51.318;6.202;2023-04-29T05:05:55;48.37;;;24.23;;
3280;SDS011;1652;51.318;6.202;2023-04-29T05:08:23;57.60;;;23.10;;
3280;SDS011;1652;51.318;6.202;2023-04-29T05:10:51;56.53;;;24.17;;
3280;SDS011;1652;51.318;6.202;2023-04-29T05:13:19;55.00;;;23.20;;
3280;SDS011;1652;51.318;6.202;2023-04-29T05:21:38;47.30;;;23.13;;
3280;SDS011;1652;51.318;6.202;2023-04-29T05:24:05;51.30;;;23.53;;
3280;SDS011;1652;51.318;6.202;2023-04-29T05:26:32;53.10;;;24.07;;
3280;SDS011;1652;51.318;6.202;2023-04-29T05:28:59;44.33;;;22.33;;
3280;SDS011;1652;51.318;6.202;2023-04-29T05:31:26;54.47;;;22.93;;
3280;SDS011;1652;51.318;6.202;2023-04-29T05:33:54;52.20;;;23.20;;
3280;SDS011;1652;51.318;6.202;2023-04-29T05:36:20;44.50;;;22.53;;
3280;SDS011;1652;51.318;6.202;2023-04-29T05:38:47;51.57;;;23.43;;
3280;SDS011;1652;51.318;6.202;2023-04-29T05:41:14;44.73;;;20.30;;
3280;SDS011;1652;51.318;6.202;2023-04-29T05:43:41;41.43;;;22.07;;
3280;SDS011;1652;51.318;6.202;2023-04-29T05:46:08;41.50;;;20.63;;
3280;SDS011;1652;51.318;6.202;2023-04-29T05:48:35;42.20;;;21.10;;
3280;SDS011;1652;51.318;6.202;2023-04-29T05:51:02;36.97;;;20.37;;
3280;SDS011;1652;51.318;6.202;2023-04-29T05:53:29;37.40;;;19.90;;
3280;SDS011;1652;51.318;6.202;2023-04-29T05:55:56;36.93;;;18.53;;
3280;SDS011;1652;51.318;6.202;2023-04-29T05:58:23;36.60;;;20.00;;
3280;SDS011;1652;51.318;6.202;2023-04-29T06:00:51;37.27;;;18.87;;
3280;SDS011;1652;51.318;6.202;2023-04-29T06:03:18;31.17;;;18.47;;
3280;SDS011;1652;51.318;6.202;2023-04-29T06:05:45;35.33;;;18.77;;
3280;SDS011;1652;51.318;6.202;2023-04-29T06:08:12;37.20;;;18.87;;
3280;SDS011;1652;51.318;6.202;2023-04-29T06:10:39;31.03;;;16.97;;
3280;SDS011;1652;51.318;6.202;2023-04-29T06:13:06;34.40;;;20.47;;
3280;SDS011;1652;51.318;6.202;2023-04-29T06:15:33;32.30;;;19.07;;
3280;SDS011;1652;51.318;6.202;2023-04-29T06:18:00;35.10;;;19.90;;
3280;SDS011;1652;51.318;6.202;2023-04-29T06:22:58;37.90;;;20.10;;
3280;SDS011;1652;51.318;6.202;2023-04-29T06:25:25;45.13;;;20.70;;
3280;SDS011;1652;51.318;6.202;2023-04-29T06:27:52;37.63;;;20.40;;
3280;SDS011;1652;51.318;6.202;2023-04-29T06:30:19;38.97;;;21.93;;
3280;SDS011;1652;51.318;6.202;2023-04-29T06:32:46;38.93;;;21.03;;
3280;SDS011;1652;51.318;6.202;2023-04-29T06:35:16;37.00;;;19.00;;
3280;SDS011;1652;51.318;6.202;2023-04-29T06:37:43;38.37;;;19.93;;
3280;SDS011;1652;51.318;6.202;2023-04-29T06:40:10;38.77;;;20.90;;
3280;SDS011;1652;51.318;6.202;2023-04-29T06:42:37;40.97;;;20.23;;
3280;SDS011;1652;51.318;6.202;2023-04-29T06:45:04;42.13;;;20.63;;
3280;SDS011;1652;51.318;6.202;2023-04-29T06:47:34;44.50;;;23.23;;
3280;SDS011;1652;51.318;6.202;2023-04-29T06:50:01;41.37;;;21.63;;
3280;SDS011;1652;51.318;6.202;2023-04-29T06:52:29;51.87;;;23.23;;
3280;SDS011;1652;51.318;6.202;2023-04-29T06:54:56;42.30;;;22.23;;
3280;SDS011;1652;51.318;6.202;2023-04-29T06:57:23;50.10;;;23.90;;
3280;SDS011;1652;51.318;6.202;2023-04-29T06:59:50;39.53;;;21.10;;
3280;SDS011;1652;51.318;6.202;2023-04-29T07:02:17;40.77;;;22.90;;
3280;SDS011;1652;51.318;6.202;2023-04-29T07:04:44;41.43;;;22.00;;
3280;SDS011;1652;51.318;6.202;2023-04-29T07:07:11;36.97;;;21.73;;
3280;SDS011;1652;51.318;6.202;2023-04-29T07:09:38;41.70;;;22.00;;
3280;SDS011;1652;51.318;6.202;2023-04-29T07:12:05;36.27;;;21.37;;
3280;SDS011;1652;51.318;6.202;2023-04-29T07:14:32;39.70;;;22.47;;
3280;SDS011;1652;51.318;6.202;2023-04-29T07:16:59;43.53;;;23.40;;
3280;SDS011;1652;51.318;6.202;2023-04-29T07:19:26;42.87;;;21.63;;
3280;SDS011;1652;51.318;6.202;2023-04-29T07:21:53;34.70;;;20.10;;
3280;SDS011;1652;51.318;6.202;2023-04-29T07:24:20;39.27;;;23.03;;
3280;SDS011;1652;51.318;6.202;2023-04-29T07:26:49;40.30;;;21.70;;
3280;SDS011;1652;51.318;6.202;2023-04-29T07:29:16;41.97;;;22.40;;
3280;SDS011;1652;51.318;6.202;2023-04-29T07:31:43;43.23;;;23.70;;
3280;SDS011;1652;51.318;6.202;2023-04-29T07:34:09;35.73;;;20.63;;
3280;SDS011;1652;51.318;6.202;2023-04-29T07:36:37;37.00;;;21.90;;
3280;SDS011;1652;51.318;6.202;2023-04-29T07:39:04;40.07;;;22.30;;
3280;SDS011;1652;51.318;6.202;2023-04-29T07:41:31;38.93;;;20.70;;
3280;SDS011;1652;51.318;6.202;2023-04-29T07:43:58;34.00;;;20.67;;
3280;SDS011;1652;51.318;6.202;2023-04-29T07:46:25;33.30;;;19.73;;
3280;SDS011;1652;51.318;6.202;2023-04-29T07:48:52;32.37;;;20.77;;
3280;SDS011;1652;51.318;6.202;2023-04-29T07:51:19;32.07;;;19.33;;
3280;SDS011;1652;51.318;6.202;2023-04-29T07:53:47;34.30;;;19.60;;
3280;SDS011;1652;51.318;6.202;2023-04-29T07:56:13;29.73;;;18.70;;
3280;SDS011;1652;51.318;6.202;2023-04-29T07:58:41;34.97;;;19.60;;
3280;SDS011;1652;51.318;6.202;2023-04-29T08:01:08;27.90;;;18.73;;
3280;SDS011;1652;51.318;6.202;2023-04-29T08:03:37;27.93;;;18.20;;
3280;SDS011;1652;51.318;6.202;2023-04-29T08:06:07;22.10;;;17.00;;
3280;SDS011;1652;51.318;6.202;2023-04-29T08:08:34;28.17;;;17.00;;
3280;SDS011;1652;51.318;6.202;2023-04-29T08:11:01;27.07;;;18.00;;
3280;SDS011;1652;51.318;6.202;2023-04-29T08:13:28;23.10;;;16.23;;
3280;SDS011;1652;51.318;6.202;2023-04-29T08:15:55;21.47;;;15.53;;
3280;SDS011;1652;51.318;6.202;2023-04-29T08:18:22;23.40;;;15.60;;
3280;SDS011;1652;51.318;6.202;2023-04-29T08:26:54;16.83;;;13.50;;
3280;SDS011;1652;51.318;6.202;2023-04-29T08:29:21;18.50;;;14.03;;
3280;SDS011;1652;51.318;6.202;2023-04-29T08:31:48;18.30;;;12.67;;
3280;SDS011;1652;51.318;6.202;2023-04-29T08:34:15;19.50;;;13.83;;
3280;SDS011;1652;51.318;6.202;2023-04-29T08:36:43;21.53;;;15.93;;
3280;SDS011;1652;51.318;6.202;2023-04-29T08:39:09;19.57;;;13.87;;
3280;SDS011;1652;51.318;6.202;2023-04-29T08:41:36;21.40;;;15.50;;
3280;SDS011;1652;51.318;6.202;2023-04-29T08:44:03;22.60;;;15.87;;
3280;SDS011;1652;51.318;6.202;2023-04-29T08:46:31;26.17;;;16.37;;
3280;SDS011;1652;51.318;6.202;2023-04-29T08:48:58;20.63;;;16.03;;
3280;SDS011;1652;51.318;6.202;2023-04-29T08:51:29;19.93;;;15.30;;
3280;SDS011;1652;51.318;6.202;2023-04-29T08:53:57;22.27;;;16.30;;
3280;SDS011;1652;51.318;6.202;2023-04-29T08:56:24;25.60;;;15.17;;
3280;SDS011;1652;51.318;6.202;2023-04-29T08:58:53;24.20;;;18.50;;
3280;SDS011;1652;51.318;6.202;2023-04-29T09:01:27;22.80;;;15.37;;
3280;SDS011;1652;51.318;6.202;2023-04-29T09:04:07;25.73;;;17.30;;
3280;SDS011;1652;51.318;6.202;2023-04-29T09:06:43;24.23;;;15.37;;
3280;SDS011;1652;51.318;6.202;2023-04-29T09:09:10;23.40;;;16.00;;
3280;SDS011;1652;51.318;6.202;2023-04-29T09:11:39;27.17;;;17.10;;
3280;SDS011;1652;51.318;6.202;2023-04-29T09:14:06;25.60;;;17.20;;
3280;SDS011;1652;51.318;6.202;2023-04-29T09:16:34;22.43;;;16.67;;
3280;SDS011;1652;51.318;6.202;2023-04-29T09:19:03;33.43;;;17.40;;
3280;SDS011;1652;51.318;6.202;2023-04-29T09:21:30;27.67;;;19.03;;
3280;SDS011;1652;51.318;6.202;2023-04-29T09:24:01;26.97;;;17.50;;
3280;SDS011;1652;51.318;6.202;2023-04-29T09:26:41;28.30;;;17.63;;
3280;SDS011;1652;51.318;6.202;2023-04-29T09:29:12;25.50;;;16.37;;
3280;SDS011;1652;51.318;6.202;2023-04-29T09:31:44;28.03;;;18.23;;
3280;SDS011;1652;51.318;6.202;2023-04-29T09:34:11;26.97;;;17.70;;
3280;SDS011;1652;51.318;6.202;2023-04-29T09:36:40;26.30;;;17.53;;
3280;SDS011;1652;51.318;6.202;2023-04-29T09:39:13;26.67;;;17.10;;
3280;SDS011;1652;51.318;6.202;2023-04-29T09:41:55;35.53;;;20.60;;
3280;SDS011;1652;51.318;6.202;2023-04-29T09:44:29;30.10;;;18.00;;
3280;SDS011;1652;51.318;6.202;2023-04-29T09:49:35;27.83;;;17.53;;
3280;SDS011;1652;51.318;6.202;2023-04-29T09:52:06;25.37;;;15.40;;
3280;SDS011;1652;51.318;6.202;2023-04-29T09:54:36;27.63;;;17.83;;
3280;SDS011;1652;51.318;6.202;2023-04-29T09:57:05;29.50;;;16.90;;
3280;SDS011;1652;51.318;6.202;2023-04-29T09:59:35;23.00;;;15.83;;
3280;SDS011;1652;51.318;6.202;2023-04-29T10:02:06;25.70;;;15.67;;
3280;SDS011;1652;51.318;6.202;2023-04-29T10:04:34;22.03;;;14.30;;
3280;SDS011;1652;51.318;6.202;2023-04-29T10:07:05;20.40;;;14.87;;
3280;SDS011;1652;51.318;6.202;2023-04-29T10:09:33;27.40;;;14.90;;
3280;SDS011;1652;51.318;6.202;2023-04-29T10:12:07;28.50;;;14.87;;
3280;SDS011;1652;51.318;6.202;2023-04-29T10:14:37;23.00;;;15.33;;
3280;SDS011;1652;51.318;6.202;2023-04-29T10:17:10;26.43;;;15.57;;
3280;SDS011;1652;51.318;6.202;2023-04-29T10:19:51;22.17;;;15.47;;
3280;SDS011;1652;51.318;6.202;2023-04-29T10:42:44;20.70;;;14.67;;
3280;SDS011;1652;51.318;6.202;2023-04-29T10:45:16;20.40;;;14.73;;
3280;SDS011;1652;51.318;6.202;2023-04-29T10:50:32;25.90;;;14.43;;
3280;SDS011;1652;51.318;6.202;2023-04-29T10:53:02;18.50;;;15.07;;
3280;SDS011;1652;51.318;6.202;2023-04-29T10:55:30;24.23;;;15.63;;
3280;SDS011;1652;51.318;6.202;2023-04-29T10:58:03;23.97;;;15.07;;
3280;SDS011;1652;51.318;6.202;2023-04-29T11:00:32;22.80;;;14.10;;
3280;SDS011;1652;51.318;6.202;2023-04-29T11:03:00;25.50;;;15.10;;
3280;SDS011;1652;51.318;6.202;2023-04-29T11:05:31;22.23;;;15.37;;
3280;SDS011;1652;51.318;6.202;2023-04-29T11:08:14;23.20;;;14.13;;
3280;SDS011;1652;51.318;6.202;2023-04-29T11:10:52;21.90;;;15.50;;
3280;SDS011;1652;51.318;6.202;2023-04-29T11:13:29;20.87;;;14.10;;
3280;SDS011;1652;51.318;6.202;2023-04-29T11:16:02;30.83;;;18.70;;
3280;SDS011;1652;51.318;6.202;2023-04-29T11:18:33;17.67;;;14.60;;
3280;SDS011;1652;51.318;6.202;2023-04-29T11:23:37;23.37;;;15.00;;
3280;SDS011;1652;51.318;6.202;2023-04-29T11:26:10;20.40;;;13.90;;
3280;SDS011;1652;51.318;6.202;2023-04-29T11:28:37;19.87;;;15.17;;
3280;SDS011;1652;51.318;6.202;2023-04-29T11:31:07;17.90;;;14.70;;
3280;SDS011;1652;51.318;6.202;2023-04-29T11:33:34;19.37;;;13.60;;
3280;SDS011;1652;51.318;6.202;2023-04-29T11:36:02;20.33;;;14.40;;
3280;SDS011;1652;51.318;6.202;2023-04-29T11:41:32;15.97;;;12.80;;
3280;SDS011;1652;51.318;6.202;2023-04-29T11:44:01;26.43;;;14.83;;
3280;SDS011;1652;51.318;6.202;2023-04-29T11:46:30;21.80;;;14.73;;
3280;SDS011;1652;51.318;6.202;2023-04-29T11:48:57;24.17;;;14.47;;
3280;SDS011;1652;51.318;6.202;2023-04-29T11:51:27;19.73;;;14.00;;
3280;SDS011;1652;51.318;6.202;2023-04-29T11:53:55;19.70;;;16.03;;
3280;SDS011;1652;51.318;6.202;2023-04-29T11:56:23;24.30;;;14.50;;
3280;SDS011;1652;51.318;6.202;2023-04-29T11:58:53;18.07;;;13.33;;
3280;SDS011;1652;51.318;6.202;2023-04-29T12:01:22;15.47;;;13.13;;
3280;SDS011;1652;51.318;6.202;2023-04-29T12:03:50;17.37;;;13.07;;
3280;SDS011;1652;51.318;6.202;2023-04-29T12:06:17;19.73;;;14.40;;
3280;SDS011;1652;51.318;6.202;2023-04-29T12:08:45;21.97;;;13.90;;
3280;SDS011;1652;51.318;6.202;2023-04-29T12:11:12;18.70;;;13.33;;
3280;SDS011;1652;51.318;6.202;2023-04-29T12:13:39;14.57;;;13.00;;
3280;SDS011;1652;51.318;6.202;2023-04-29T12:16:06;21.00;;;11.90;;
3280;SDS011;1652;51.318;6.202;2023-04-29T12:18:34;18.77;;;11.80;;
3280;SDS011;1652;51.318;6.202;2023-04-29T12:21:01;14.60;;;13.03;;
3280;SDS011;1652;51.318;6.202;2023-04-29T12:23:28;13.47;;;12.23;;
3280;SDS011;1652;51.318;6.202;2023-04-29T12:25:56;14.30;;;12.13;;
3280;SDS011;1652;51.318;6.202;2023-04-29T12:28:25;12.90;;;11.60;;
3280;SDS011;1652;51.318;6.202;2023-04-29T12:30:53;14.53;;;11.93;;
3280;SDS011;1652;51.318;6.202;2023-04-29T12:33:20;13.77;;;12.03;;
3280;SDS011;1652;51.318;6.202;2023-04-29T12:35:49;16.57;;;12.70;;
3280;SDS011;1652;51.318;6.202;2023-04-29T12:38:34;14.10;;;12.57;;
3280;SDS011;1652;51.318;6.202;2023-04-29T12:41:01;14.70;;;12.57;;
3280;SDS011;1652;51.318;6.202;2023-04-29T12:43:29;12.10;;;10.67;;
3280;SDS011;1652;51.318;6.202;2023-04-29T12:46:03;16.90;;;11.30;;
3280;SDS011;1652;51.318;6.202;2023-04-29T12:48:31;15.43;;;13.13;;
3280;SDS011;1652;51.318;6.202;2023-04-29T12:51:00;18.57;;;12.20;;
3280;SDS011;1652;51.318;6.202;2023-04-29T12:53:30;17.50;;;12.00;;
3280;SDS011;1652;51.318;6.202;2023-04-29T12:55:57;17.97;;;11.37;;
3280;SDS011;1652;51.318;6.202;2023-04-29T12:58:27;10.83;;;9.83;;
3280;SDS011;1652;51.318;6.202;2023-04-29T13:00:56;19.57;;;11.33;;
3280;SDS011;1652;51.318;6.202;2023-04-29T13:03:24;11.07;;;9.70;;
3280;SDS011;1652;51.318;6.202;2023-04-29T13:05:52;16.47;;;11.50;;
3280;SDS011;1652;51.318;6.202;2023-04-29T13:08:20;15.80;;;11.40;;
3280;SDS011;1652;51.318;6.202;2023-04-29T13:10:48;17.83;;;10.10;;
3280;SDS011;1652;51.318;6.202;2023-04-29T13:13:15;12.03;;;10.53;;
3280;SDS011;1652;51.318;6.202;2023-04-29T13:15:42;9.70;;;8.87;;
3280;SDS011;1652;51.318;6.202;2023-04-29T13:18:09;10.00;;;9.07;;
3280;SDS011;1652;51.318;6.202;2023-04-29T13:20:36;9.40;;;8.57;;
3280;SDS011;1652;51.318;6.202;2023-04-29T13:23:07;10.97;;;9.53;;
3280;SDS011;1652;51.318;6.202;2023-04-29T13:25:34;14.80;;;10.07;;
3280;SDS011;1652;51.318;6.202;2023-04-29T13:28:01;11.53;;;10.40;;
3280;SDS011;1652;51.318;6.202;2023-04-29T13:30:30;10.67;;;8.80;;
3280;SDS011;1652;51.318;6.202;2023-04-29T13:32:58;10.90;;;9.77;;
3280;SDS011;1652;51.318;6.202;2023-04-29T13:35:36;11.80;;;10.60;;
3280;SDS011;1652;51.318;6.202;2023-04-29T13:38:05;17.40;;;10.60;;
3280;SDS011;1652;51.318;6.202;2023-04-29T13:40:33;16.17;;;11.10;;
3280;SDS011;1652;51.318;6.202;2023-04-29T13:43:10;11.87;;;10.67;;
3280;SDS011;1652;51.318;6.202;2023-04-29T13:45:43;14.47;;;10.27;;
3280;SDS011;1652;51.318;6.202;2023-04-29T13:48:13;14.20;;;12.57;;
3280;SDS011;1652;51.318;6.202;2023-04-29T13:51:00;12.47;;;11.10;;
3280;SDS011;1652;51.318;6.202;2023-04-29T13:53:30;16.87;;;11.00;;
3280;SDS011;1652;51.318;6.202;2023-04-29T13:55:59;17.63;;;10.33;;
3280;SDS011;1652;51.318;6.202;2023-04-29T13:58:46;11.70;;;10.50;;
3280;SDS011;1652;51.318;6.202;2023-04-29T14:01:36;12.70;;;10.83;;
3280;SDS011;1652;51.318;6.202;2023-04-29T14:04:23;12.80;;;9.53;;
3280;SDS011;1652;51.318;6.202;2023-04-29T14:06:54;13.63;;;10.27;;
3280;SDS011;1652;51.318;6.202;2023-04-29T14:09:21;13.83;;;9.80;;
3280;SDS011;1652;51.318;6.202;2023-04-29T14:11:48;14.97;;;10.63;;
3280;SDS011;1652;51.318;6.202;2023-04-29T14:14:16;14.70;;;11.50;;
3280;SDS011;1652;51.318;6.202;2023-04-29T14:16:43;15.97;;;9.63;;
3280;SDS011;1652;51.318;6.202;2023-04-29T14:19:10;10.63;;;9.50;;
3280;SDS011;1652;51.318;6.202;2023-04-29T14:21:37;11.17;;;9.97;;
3280;SDS011;1652;51.318;6.202;2023-04-29T14:24:04;12.30;;;9.23;;
3280;SDS011;1652;51.318;6.202;2023-04-29T14:26:31;12.87;;;8.87;;
3280;SDS011;1652;51.318;6.202;2023-04-29T14:28:58;11.77;;;10.00;;
3280;SDS011;1652;51.318;6.202;2023-04-29T14:31:29;20.50;;;8.90;;
3280;SDS011;1652;51.318;6.202;2023-04-29T14:33:57;11.17;;;9.27;;
3280;SDS011;1652;51.318;6.202;2023-04-29T14:36:24;13.80;;;8.80;;
3280;SDS011;1652;51.318;6.202;2023-04-29T14:38:52;9.10;;;8.20;;
3280;SDS011;1652;51.318;6.202;2023-04-29T14:41:19;13.13;;;8.27;;
3280;SDS011;1652;51.318;6.202;2023-04-29T14:43:49;13.43;;;8.60;;
3280;SDS011;1652;51.318;6.202;2023-04-29T14:46:16;9.47;;;8.57;;
3280;SDS011;1652;51.318;6.202;2023-04-29T14:48:43;12.30;;;8.70;;
3280;SDS011;1652;51.318;6.202;2023-04-29T14:51:10;8.03;;;7.03;;
3280;SDS011;1652;51.318;6.202;2023-04-29T14:53:37;8.60;;;7.90;;
3280;SDS011;1652;51.318;6.202;2023-04-29T14:56:04;9.10;;;8.33;;
3280;SDS011;1652;51.318;6.202;2023-04-29T14:58:33;10.43;;;7.87;;
3280;SDS011;1652;51.318;6.202;2023-04-29T15:01:00;8.83;;;8.03;;
3280;SDS011;1652;51.318;6.202;2023-04-29T15:03:27;7.43;;;6.93;;
3280;SDS011;1652;51.318;6.202;2023-04-29T15:05:54;7.30;;;6.60;;
3280;SDS011;1652;51.318;6.202;2023-04-29T15:08:21;7.87;;;7.17;;
3280;SDS011;1652;51.318;6.202;2023-04-29T15:10:48;7.10;;;6.70;;
3280;SDS011;1652;51.318;6.202;2023-04-29T15:13:15;6.50;;;5.90;;
3280;SDS011;1652;51.318;6.202;2023-04-29T15:15:42;6.40;;;5.83;;
3280;SDS011;1652;51.318;6.202;2023-04-29T15:18:09;5.70;;;5.27;;
3280;SDS011;1652;51.318;6.202;2023-04-29T15:20:36;4.53;;;4.33;;
3280;SDS011;1652;51.318;6.202;2023-04-29T15:23:04;5.77;;;5.23;;
3280;SDS011;1652;51.318;6.202;2023-04-29T15:25:31;6.33;;;5.77;;
3280;SDS011;1652;51.318;6.202;2023-04-29T15:28:01;5.93;;;5.60;;
3280;SDS011;1652;51.318;6.202;2023-04-29T15:30:31;7.37;;;6.70;;
3280;SDS011;1652;51.318;6.202;2023-04-29T15:32:58;6.57;;;5.70;;
3280;SDS011;1652;51.318;6.202;2023-04-29T15:35:25;6.50;;;6.00;;
3280;SDS011;1652;51.318;6.202;2023-04-29T15:37:53;6.13;;;5.53;;
3280;SDS011;1652;51.318;6.202;2023-04-29T15:40:19;6.33;;;5.80;;
3280;SDS011;1652;51.318;6.202;2023-04-29T15:42:46;9.77;;;6.07;;
3280;SDS011;1652;51.318;6.202;2023-04-29T15:45:13;13.07;;;9.70;;
3280;SDS011;1652;51.318;6.202;2023-04-29T15:47:41;6.53;;;6.03;;
3280;SDS011;1652;51.318;6.202;2023-04-29T15:50:08;7.37;;;5.63;;
3280;SDS011;1652;51.318;6.202;2023-04-29T15:52:35;6.87;;;6.13;;
3280;SDS011;1652;51.318;6.202;2023-04-29T15:55:03;7.37;;;6.70;;
3280;SDS011;1652;51.318;6.202;2023-04-29T15:57:30;6.40;;;6.00;;